sensor_id;sensor_type;location;lat;lon;timestamp;pressure;altitude;pressure_sealevel;temperature;humidity
34921;BME280;21128;50.016;20.002;2023-03-31T00:01:25;98070.49;;;9.88;86.84
34921;BME280;21128;50.016;20.002;2023-03-31T00:04:11;98084.44;;;9.88;87.17
34921;BME280;21128;50.016;20.002;2023-03-31T00:07:04;98085.25;;;9.89;87.36
34921;BME280;21128;50.016;20.002;2023-03-31T00:09:50;98081.65;;;9.90;87.45
34921;BME280;21128;50.016;20.002;2023-03-31T00:12:39;98078.86;;;9.92;88.32
34921;BME280;21128;50.016;20.002;2023-03-31T00:15:26;98086.44;;;9.95;89.10
34921;BME280;21128;50.016;20.002;2023-03-31T00:18:12;98078.24;;;9.98;88.51
34921;BME280;21128;50.016;20.002;2023-03-31T00:21:08;98085.83;;;10.01;88.65
34921;BME280;21128;50.016;20.002;2023-03-31T00:24:01;98086.64;;;10.01;88.65
34921;BME280;21128;50.016;20.002;2023-03-31T00:26:47;98091.08;;;10.01;88.79
34921;BME280;21128;50.016;20.002;2023-03-31T00:29:32;98094.36;;;10.03;88.83
34921;BME280;21128;50.016;20.002;2023-03-31T00:32:20;98085.50;;;10.04;89.94
34921;BME280;21128;50.016;20.002;2023-03-31T00:35:06;98077.79;;;10.02;89.92
34921;BME280;21128;50.016;20.002;2023-03-31T00:37:53;98082.05;;;10.03;89.82
34921;BME280;21128;50.016;20.002;2023-03-31T00:40:45;98087.47;;;10.02;90.28
34921;BME280;21128;50.016;20.002;2023-03-31T00:43:36;98081.23;;;10.03;90.12
34921;BME280;21128;50.016;20.002;2023-03-31T00:46:26;98087.30;;;10.03;91.13
34921;BME280;21128;50.016;20.002;2023-03-31T00:49:31;98082.88;;;10.04;92.24
34921;BME280;21128;50.016;20.002;2023-03-31T00:52:27;98083.04;;;10.02;92.17
34921;BME280;21128;50.016;20.002;2023-03-31T00:55:19;98079.43;;;10.03;92.21
34921;BME280;21128;50.016;20.002;2023-03-31T00:58:07;98081.23;;;10.03;92.95
34921;BME280;21128;50.016;20.002;2023-03-31T01:01:00;98073.36;;;10.03;91.49
34921;BME280;21128;50.016;20.002;2023-03-31T01:03:47;98076.64;;;10.05;92.29
34921;BME280;21128;50.016;20.002;2023-03-31T01:06:53;98073.03;;;10.06;92.37
34921;BME280;21128;50.016;20.002;2023-03-31T01:09:47;98075.37;;;10.09;91.90
34921;BME280;21128;50.016;20.002;2023-03-31T01:12:36;98080.45;;;10.10;91.76
34921;BME280;21128;50.016;20.002;2023-03-31T01:15:22;98080.45;;;10.10;91.20
34921;BME280;21128;50.016;20.002;2023-03-31T01:18:08;98082.91;;;10.12;91.57
34921;BME280;21128;50.016;20.002;2023-03-31T01:24:17;98084.55;;;10.13;91.56
34921;BME280;21128;50.016;20.002;2023-03-31T01:46:53;98073.40;;;10.11;89.25
34921;BME280;21128;50.016;20.002;2023-03-31T01:49:45;98074.38;;;10.10;88.73
34921;BME280;21128;50.016;20.002;2023-03-31T01:52:37;98065.82;;;10.08;89.08
34921;BME280;21128;50.016;20.002;2023-03-31T01:55:40;98067.78;;;10.06;89.43
34921;BME280;21128;50.016;20.002;2023-03-31T01:58:39;98073.20;;;10.04;88.69
34921;BME280;21128;50.016;20.002;2023-03-31T02:01:34;98069.09;;;10.02;89.00
34921;BME280;21128;50.016;20.002;2023-03-31T02:04:28;98076.28;;;10.00;88.42
34921;BME280;21128;50.016;20.002;2023-03-31T02:07:34;98085.83;;;10.01;88.20
34921;BME280;21128;50.016;20.002;2023-03-31T02:10:24;98087.76;;;9.99;88.64
34921;BME280;21128;50.016;20.002;2023-03-31T02:13:12;98080.05;;;9.97;88.54
34921;BME280;21128;50.016;20.002;2023-03-31T02:16:01;98073.98;;;9.97;88.71
34921;BME280;21128;50.016;20.002;2023-03-31T02:18:52;98082.02;;;9.95;88.17
34921;BME280;21128;50.016;20.002;2023-03-31T02:21:47;98071.84;;;9.92;88.56
34921;BME280;21128;50.016;20.002;2023-03-31T02:24:35;98073.78;;;9.90;88.81
34921;BME280;21128;50.016;20.002;2023-03-31T02:27:39;98082.63;;;9.89;87.87
34921;BME280;21128;50.016;20.002;2023-03-31T02:30:35;98074.27;;;9.85;88.53
34921;BME280;21128;50.016;20.002;2023-03-31T02:33:26;98070.00;;;9.84;88.68
34921;BME280;21128;50.016;20.002;2023-03-31T02:36:12;98081.60;;;9.82;88.62
34921;BME280;21128;50.016;20.002;2023-03-31T02:39:03;98072.25;;;9.79;88.80
34921;BME280;21128;50.016;20.002;2023-03-31T02:41:50;98076.18;;;9.75;89.25
34921;BME280;21128;50.016;20.002;2023-03-31T02:44:37;98077.12;;;9.74;89.25
34921;BME280;21128;50.016;20.002;2023-03-31T02:47:24;98077.45;;;9.71;88.78
34921;BME280;21128;50.016;20.002;2023-03-31T02:50:10;98074.98;;;9.70;88.97
34921;BME280;21128;50.016;20.002;2023-03-31T02:56:04;98075.28;;;9.67;89.30
34921;BME280;21128;50.016;20.002;2023-03-31T03:08:07;98061.66;;;9.63;89.06
34921;BME280;21128;50.016;20.002;2023-03-31T03:11:12;98060.02;;;9.62;88.90
34921;BME280;21128;50.016;20.002;2023-03-31T03:17:12;98062.59;;;9.54;89.15
34921;BME280;21128;50.016;20.002;2023-03-31T03:20:01;98062.22;;;9.49;89.64
34921;BME280;21128;50.016;20.002;2023-03-31T03:22:52;98062.53;;;9.46;88.68
34921;BME280;21128;50.016;20.002;2023-03-31T03:25:37;98076.79;;;9.43;89.42
34921;BME280;21128;50.016;20.002;2023-03-31T03:28:23;98066.46;;;9.42;89.99
34921;BME280;21128;50.016;20.002;2023-03-31T03:31:09;98072.66;;;9.41;89.91
34921;BME280;21128;50.016;20.002;2023-03-31T03:33:54;98062.48;;;9.38;89.63
34921;BME280;21128;50.016;20.002;2023-03-31T03:36:40;98077.39;;;9.37;89.58
34921;BME280;21128;50.016;20.002;2023-03-31T03:39:26;98069.53;;;9.37;89.62
34921;BME280;21128;50.016;20.002;2023-03-31T03:42:12;98070.50;;;9.36;89.63
34921;BME280;21128;50.016;20.002;2023-03-31T03:44:58;98061.82;;;9.36;89.88
34921;BME280;21128;50.016;20.002;2023-03-31T03:47:44;98069.02;;;9.34;89.29
34921;BME280;21128;50.016;20.002;2023-03-31T03:50:29;98063.91;;;9.32;89.33
34921;BME280;21128;50.016;20.002;2023-03-31T03:53:15;98056.04;;;9.32;89.27
34921;BME280;21128;50.016;20.002;2023-03-31T03:56:00;98054.23;;;9.33;89.58
34921;BME280;21128;50.016;20.002;2023-03-31T03:58:47;98043.91;;;9.31;89.02
34921;BME280;21128;50.016;20.002;2023-03-31T04:01:33;98045.71;;;9.30;89.04
34921;BME280;21128;50.016;20.002;2023-03-31T04:04:18;98042.42;;;9.28;89.75
34921;BME280;21128;50.016;20.002;2023-03-31T04:07:04;98039.14;;;9.26;89.60
34921;BME280;21128;50.016;20.002;2023-03-31T04:09:56;98042.75;;;9.25;89.71
34921;BME280;21128;50.016;20.002;2023-03-31T04:12:41;98052.54;;;9.23;89.30
34921;BME280;21128;50.016;20.002;2023-03-31T04:15:27;98038.45;;;9.24;89.08
34921;BME280;21128;50.016;20.002;2023-03-31T04:18:13;98045.50;;;9.24;90.29
34921;BME280;21128;50.016;20.002;2023-03-31T04:21:08;98039.43;;;9.23;89.68
34921;BME280;21128;50.016;20.002;2023-03-31T04:23:56;98035.98;;;9.23;89.18
34921;BME280;21128;50.016;20.002;2023-03-31T04:26:48;98028.13;;;9.23;88.93
34921;BME280;21128;50.016;20.002;2023-03-31T04:29:35;98018.46;;;9.23;89.53
34921;BME280;21128;50.016;20.002;2023-03-31T04:32:22;98020.42;;;9.21;89.31
34921;BME280;21128;50.016;20.002;2023-03-31T04:35:08;98018.78;;;9.20;89.13
34921;BME280;21128;50.016;20.002;2023-03-31T04:37:53;98013.53;;;9.20;90.00
34921;BME280;21128;50.016;20.002;2023-03-31T04:40:47;98019.60;;;9.21;89.90
34921;BME280;21128;50.016;20.002;2023-03-31T04:43:33;98022.38;;;9.19;89.04
34921;BME280;21128;50.016;20.002;2023-03-31T04:46:19;98016.31;;;9.19;89.67
34921;BME280;21128;50.016;20.002;2023-03-31T04:49:04;98017.30;;;9.18;90.14
34921;BME280;21128;50.016;20.002;2023-03-31T04:51:50;98018.12;;;9.18;89.64
34921;BME280;21128;50.016;20.002;2023-03-31T04:54:36;98016.31;;;9.19;89.71
34921;BME280;21128;50.016;20.002;2023-03-31T04:57:21;98011.89;;;9.19;89.97
34921;BME280;21128;50.016;20.002;2023-03-31T05:00:07;98024.02;;;9.20;89.30
34921;BME280;21128;50.016;20.002;2023-03-31T05:02:53;98016.16;;;9.20;89.03
34921;BME280;21128;50.016;20.002;2023-03-31T05:05:45;98016.98;;;9.21;89.56
34921;BME280;21128;50.016;20.002;2023-03-31T05:08:31;98018.46;;;9.23;89.34
34921;BME280;21128;50.016;20.002;2023-03-31T05:11:18;98011.29;;;9.25;88.92
34921;BME280;21128;50.016;20.002;2023-03-31T05:14:03;98015.39;;;9.28;89.11
34921;BME280;21128;50.016;20.002;2023-03-31T05:16:49;98009.01;;;9.30;88.57
34921;BME280;21128;50.016;20.002;2023-03-31T05:19:35;98005.94;;;9.35;89.34
34921;BME280;21128;50.016;20.002;2023-03-31T05:22:21;97996.94;;;9.38;88.66
34921;BME280;21128;50.016;20.002;2023-03-31T05:25:08;98008.90;;;9.40;88.26
34921;BME280;21128;50.016;20.002;2023-03-31T05:27:56;98011.23;;;9.43;88.86
34921;BME280;21128;50.016;20.002;2023-03-31T05:30:41;98000.91;;;9.42;88.58
34921;BME280;21128;50.016;20.002;2023-03-31T05:33:27;98003.20;;;9.45;88.30
34921;BME280;21128;50.016;20.002;2023-03-31T05:36:15;97995.55;;;9.51;88.58
34921;BME280;21128;50.016;20.002;2023-03-31T05:39:05;98002.11;;;9.55;88.57
34921;BME280;21128;50.016;20.002;2023-03-31T05:41:52;98000.31;;;9.56;88.18
34921;BME280;21128;50.016;20.002;2023-03-31T05:44:38;97992.28;;;9.57;88.09
34921;BME280;21128;50.016;20.002;2023-03-31T05:47:23;97989.36;;;9.61;87.92
34921;BME280;21128;50.016;20.002;2023-03-31T05:50:09;97984.61;;;9.64;87.74
34921;BME280;21128;50.016;20.002;2023-03-31T05:52:54;97988.42;;;9.70;87.97
34921;BME280;21128;50.016;20.002;2023-03-31T05:55:40;97983.50;;;9.75;87.76
34921;BME280;21128;50.016;20.002;2023-03-31T05:58:25;97988.30;;;9.79;87.75
34921;BME280;21128;50.016;20.002;2023-03-31T06:01:15;97986.20;;;9.91;87.71
34921;BME280;21128;50.016;20.002;2023-03-31T06:04:06;97983.14;;;10.04;87.35
34921;BME280;21128;50.016;20.002;2023-03-31T06:06:52;97974.66;;;10.18;86.46
34921;BME280;21128;50.016;20.002;2023-03-31T06:09:44;97979.63;;;10.29;86.32
34921;BME280;21128;50.016;20.002;2023-03-31T06:12:31;97964.53;;;10.39;86.00
34921;BME280;21128;50.016;20.002;2023-03-31T06:15:17;97971.77;;;10.37;85.10
34921;BME280;21128;50.016;20.002;2023-03-31T06:18:02;97975.38;;;10.36;84.77
34921;BME280;21128;50.016;20.002;2023-03-31T06:20:51;97976.20;;;10.37;85.06
34921;BME280;21128;50.016;20.002;2023-03-31T06:23:36;97968.80;;;10.40;84.58
34921;BME280;21128;50.016;20.002;2023-03-31T06:26:22;97970.45;;;10.50;84.38
34921;BME280;21128;50.016;20.002;2023-03-31T06:29:08;97969.47;;;10.59;84.36
34921;BME280;21128;50.016;20.002;2023-03-31T06:31:54;97971.15;;;10.68;84.06
34921;BME280;21128;50.016;20.002;2023-03-31T06:34:40;97970.47;;;10.74;83.25
34921;BME280;21128;50.016;20.002;2023-03-31T06:37:26;97965.86;;;10.84;82.64
34921;BME280;21128;50.016;20.002;2023-03-31T06:40:12;97970.64;;;10.97;82.92
34921;BME280;21128;50.016;20.002;2023-03-31T06:42:58;97968.99;;;11.04;81.36
34921;BME280;21128;50.016;20.002;2023-03-31T06:45:44;97966.02;;;11.07;80.64
34921;BME280;21128;50.016;20.002;2023-03-31T06:48:30;97967.48;;;11.10;80.35
34921;BME280;21128;50.016;20.002;2023-03-31T06:51:16;97972.75;;;11.10;79.63
34921;BME280;21128;50.016;20.002;2023-03-31T06:54:01;97963.22;;;11.09;78.82
34921;BME280;21128;50.016;20.002;2023-03-31T06:56:48;97976.05;;;11.12;78.60
34921;BME280;21128;50.016;20.002;2023-03-31T06:59:33;97974.23;;;11.20;78.54
34921;BME280;21128;50.016;20.002;2023-03-31T07:02:19;97977.98;;;11.26;77.25
34921;BME280;21128;50.016;20.002;2023-03-31T07:05:06;97976.03;;;11.28;77.55
34921;BME280;21128;50.016;20.002;2023-03-31T07:08:05;97965.47;;;11.44;77.79
34921;BME280;21128;50.016;20.002;2023-03-31T07:10:56;97966.71;;;11.65;77.92
34921;BME280;21128;50.016;20.002;2023-03-31T07:13:42;97973.58;;;11.82;75.87
34921;BME280;21128;50.016;20.002;2023-03-31T07:16:27;97967.47;;;11.90;77.01
34921;BME280;21128;50.016;20.002;2023-03-31T07:19:13;97966.30;;;11.92;75.54
34921;BME280;21128;50.016;20.002;2023-03-31T07:22:00;97963.98;;;11.97;74.24
34921;BME280;21128;50.016;20.002;2023-03-31T07:24:45;97955.86;;;12.07;75.23
34921;BME280;21128;50.016;20.002;2023-03-31T07:27:31;97950.27;;;12.33;75.49
34921;BME280;21128;50.016;20.002;2023-03-31T07:30:18;97949.92;;;12.59;73.34
34921;BME280;21128;50.016;20.002;2023-03-31T07:33:04;97952.05;;;12.63;71.74
34921;BME280;21128;50.016;20.002;2023-03-31T07:35:50;97940.80;;;12.70;69.87
34921;BME280;21128;50.016;20.002;2023-03-31T07:38:35;97949.98;;;12.74;69.80
34921;BME280;21128;50.016;20.002;2023-03-31T07:41:21;97945.01;;;12.79;69.66
34921;BME280;21128;50.016;20.002;2023-03-31T07:44:07;97932.66;;;12.94;69.55
34921;BME280;21128;50.016;20.002;2023-03-31T07:46:53;97931.87;;;13.08;67.74
34921;BME280;21128;50.016;20.002;2023-03-31T07:49:38;97935.87;;;13.19;67.58
34921;BME280;21128;50.016;20.002;2023-03-31T07:52:24;97937.75;;;13.33;67.60
34921;BME280;21128;50.016;20.002;2023-03-31T07:55:10;97938.02;;;13.53;68.19
34921;BME280;21128;50.016;20.002;2023-03-31T07:57:56;97940.36;;;13.77;67.51
34921;BME280;21128;50.016;20.002;2023-03-31T08:00:42;97932.61;;;13.91;64.24
34921;BME280;21128;50.016;20.002;2023-03-31T08:03:28;97936.78;;;14.00;64.92
34921;BME280;21128;50.016;20.002;2023-03-31T08:06:19;97927.24;;;14.20;65.84
34921;BME280;21128;50.016;20.002;2023-03-31T08:09:25;97922.52;;;14.52;65.81
34921;BME280;21128;50.016;20.002;2023-03-31T08:12:11;97911.94;;;14.73;64.75
34921;BME280;21128;50.016;20.002;2023-03-31T08:14:57;97915.18;;;14.97;62.62
34921;BME280;21128;50.016;20.002;2023-03-31T08:17:43;97925.22;;;15.08;61.73
34921;BME280;21128;50.016;20.002;2023-03-31T08:20:29;97905.95;;;15.20;63.95
34921;BME280;21128;50.016;20.002;2023-03-31T08:23:15;97904.92;;;15.49;62.69
34921;BME280;21128;50.016;20.002;2023-03-31T08:26:15;97885.00;;;15.60;61.79
34921;BME280;21128;50.016;20.002;2023-03-31T08:29:02;97893.28;;;15.85;62.68
34921;BME280;21128;50.016;20.002;2023-03-31T08:31:48;97893.45;;;15.77;57.33
34921;BME280;21128;50.016;20.002;2023-03-31T08:34:34;97892.13;;;15.60;57.67
34921;BME280;21128;50.016;20.002;2023-03-31T08:37:21;97891.22;;;15.74;58.05
34921;BME280;21128;50.016;20.002;2023-03-31T08:40:09;97876.81;;;15.90;57.34
34921;BME280;21128;50.016;20.002;2023-03-31T08:43:05;97880.90;;;16.05;56.72
34921;BME280;21128;50.016;20.002;2023-03-31T08:45:53;97876.17;;;15.81;52.92
34921;BME280;21128;50.016;20.002;2023-03-31T08:48:43;97864.29;;;15.64;54.82
34921;BME280;21128;50.016;20.002;2023-03-31T08:51:38;97855.61;;;15.90;55.51
34921;BME280;21128;50.016;20.002;2023-03-31T08:54:32;97864.63;;;16.09;55.45
34921;BME280;21128;50.016;20.002;2023-03-31T08:57:27;97850.37;;;16.29;54.66
34921;BME280;21128;50.016;20.002;2023-03-31T09:00:16;97850.16;;;16.31;53.95
34921;BME280;21128;50.016;20.002;2023-03-31T09:03:24;97852.42;;;16.34;51.76
34921;BME280;21128;50.016;20.002;2023-03-31T09:06:20;97839.37;;;16.46;52.87
34921;BME280;21128;50.016;20.002;2023-03-31T09:15:53;97828.56;;;16.67;52.89
34921;BME280;21128;50.016;20.002;2023-03-31T09:18:41;97823.26;;;16.87;52.37
34921;BME280;21128;50.016;20.002;2023-03-31T09:24:30;97820.81;;;16.26;52.04
34921;BME280;21128;50.016;20.002;2023-03-31T09:27:19;97815.31;;;16.34;53.26
34921;BME280;21128;50.016;20.002;2023-03-31T09:30:19;97810.61;;;16.29;51.78
34921;BME280;21128;50.016;20.002;2023-03-31T09:33:14;97812.25;;;16.44;51.72
34921;BME280;21128;50.016;20.002;2023-03-31T09:36:11;97800.02;;;16.69;51.30
34921;BME280;21128;50.016;20.002;2023-03-31T09:38:58;97808.73;;;17.09;51.00
34921;BME280;21128;50.016;20.002;2023-03-31T09:41:45;97788.46;;;17.22;51.15
34921;BME280;21128;50.016;20.002;2023-03-31T09:44:39;97786.60;;;17.29;50.30
34921;BME280;21128;50.016;20.002;2023-03-31T09:47:41;97783.29;;;16.75;49.13
34921;BME280;21128;50.016;20.002;2023-03-31T09:50:29;97767.37;;;16.82;50.89
34921;BME280;21128;50.016;20.002;2023-03-31T09:53:28;97769.58;;;16.92;49.63
34921;BME280;21128;50.016;20.002;2023-03-31T09:59:33;97742.65;;;18.09;51.19
34921;BME280;21128;50.016;20.002;2023-03-31T10:02:36;97750.34;;;18.42;47.60
34921;BME280;21128;50.016;20.002;2023-03-31T10:05:34;97741.62;;;17.79;48.48
34921;BME280;21128;50.016;20.002;2023-03-31T10:08:40;97736.80;;;17.62;48.24
34921;BME280;21128;50.016;20.002;2023-03-31T10:11:27;97743.64;;;17.45;47.31
34921;BME280;21128;50.016;20.002;2023-03-31T10:14:14;97737.95;;;17.41;48.09
34921;BME280;21128;50.016;20.002;2023-03-31T10:17:03;97729.70;;;17.11;47.49
34921;BME280;21128;50.016;20.002;2023-03-31T10:19:59;97734.20;;;17.11;47.85
34921;BME280;21128;50.016;20.002;2023-03-31T10:22:50;97723.44;;;16.99;46.85
34921;BME280;21128;50.016;20.002;2023-03-31T10:25:36;97727.00;;;17.25;47.81
34921;BME280;21128;50.016;20.002;2023-03-31T10:28:22;97718.20;;;17.62;47.23
34921;BME280;21128;50.016;20.002;2023-03-31T10:31:08;97724.58;;;17.55;46.77
34921;BME280;21128;50.016;20.002;2023-03-31T10:33:55;97711.16;;;16.98;46.63
34921;BME280;21128;50.016;20.002;2023-03-31T10:36:47;97713.08;;;16.78;48.27
34921;BME280;21128;50.016;20.002;2023-03-31T10:39:34;97711.03;;;16.80;48.45
34921;BME280;21128;50.016;20.002;2023-03-31T10:42:21;97709.77;;;16.89;49.16
34921;BME280;21128;50.016;20.002;2023-03-31T10:45:24;97696.70;;;16.94;49.02
34921;BME280;21128;50.016;20.002;2023-03-31T10:48:35;97694.88;;;16.88;49.01
34921;BME280;21128;50.016;20.002;2023-03-31T10:51:27;97697.16;;;16.78;50.12
34921;BME280;21128;50.016;20.002;2023-03-31T10:54:13;97691.64;;;16.79;49.39
34921;BME280;21128;50.016;20.002;2023-03-31T10:57:00;97686.92;;;16.88;49.71
34921;BME280;21128;50.016;20.002;2023-03-31T11:03:31;97674.94;;;17.87;48.74
34921;BME280;21128;50.016;20.002;2023-03-31T11:12:32;97658.16;;;18.73;45.93
34921;BME280;21128;50.016;20.002;2023-03-31T11:15:28;97657.79;;;18.88;45.71
34921;BME280;21128;50.016;20.002;2023-03-31T11:28:01;97656.04;;;17.38;45.57
34921;BME280;21128;50.016;20.002;2023-03-31T11:31:38;97652.78;;;16.98;46.33
34921;BME280;21128;50.016;20.002;2023-03-31T11:37:10;97643.59;;;16.43;48.10
34921;BME280;21128;50.016;20.002;2023-03-31T11:40:33;97645.45;;;16.29;47.63
34921;BME280;21128;50.016;20.002;2023-03-31T11:43:39;97638.96;;;16.05;48.44
34921;BME280;21128;50.016;20.002;2023-03-31T11:46:37;97642.88;;;15.89;49.35
34921;BME280;21128;50.016;20.002;2023-03-31T11:49:33;97641.43;;;15.93;49.56
34921;BME280;21128;50.016;20.002;2023-03-31T11:52:44;97636.95;;;16.00;49.24
34921;BME280;21128;50.016;20.002;2023-03-31T11:55:33;97634.09;;;16.02;49.37
34921;BME280;21128;50.016;20.002;2023-03-31T11:58:26;97625.92;;;16.03;49.84
34921;BME280;21128;50.016;20.002;2023-03-31T12:01:37;97625.50;;;16.13;49.76
34921;BME280;21128;50.016;20.002;2023-03-31T12:04:47;97616.94;;;16.18;49.55
34921;BME280;21128;50.016;20.002;2023-03-31T12:07:40;97621.78;;;16.41;48.92
34921;BME280;21128;50.016;20.002;2023-03-31T12:10:37;97602.43;;;16.92;47.90
34921;BME280;21128;50.016;20.002;2023-03-31T12:16:44;97596.06;;;16.99;47.64
34921;BME280;21128;50.016;20.002;2023-03-31T12:19:51;97598.11;;;17.29;46.75
34921;BME280;21128;50.016;20.002;2023-03-31T12:22:38;97584.11;;;17.71;47.45
34921;BME280;21128;50.016;20.002;2023-03-31T12:28:35;97585.25;;;17.57;46.48
34921;BME280;21128;50.016;20.002;2023-03-31T12:31:23;97573.52;;;17.90;47.29
34921;BME280;21128;50.016;20.002;2023-03-31T12:34:13;97564.84;;;18.19;45.87
34921;BME280;21128;50.016;20.002;2023-03-31T12:55:56;97537.97;;;17.16;46.31
34921;BME280;21128;50.016;20.002;2023-03-31T12:58:43;97538.23;;;17.08;47.18
34921;BME280;21128;50.016;20.002;2023-03-31T13:01:29;97522.78;;;17.23;46.79
34921;BME280;21128;50.016;20.002;2023-03-31T13:07:50;97518.59;;;17.40;45.47
34921;BME280;21128;50.016;20.002;2023-03-31T13:13:13;97503.66;;;17.14;46.28
34921;BME280;21128;50.016;20.002;2023-03-31T13:16:00;97504.77;;;17.07;46.08
34921;BME280;21128;50.016;20.002;2023-03-31T13:18:51;97497.07;;;16.99;46.93
34921;BME280;21128;50.016;20.002;2023-03-31T13:22:00;97489.82;;;16.81;46.46
34921;BME280;21128;50.016;20.002;2023-03-31T13:24:46;97485.80;;;16.72;46.33
34921;BME280;21128;50.016;20.002;2023-03-31T13:27:32;97483.95;;;16.72;46.88
34921;BME280;21128;50.016;20.002;2023-03-31T13:33:43;97480.94;;;16.69;45.92
34921;BME280;21128;50.016;20.002;2023-03-31T13:51:57;97433.89;;;16.13;46.94
34921;BME280;21128;50.016;20.002;2023-03-31T13:58:46;97433.67;;;16.14;48.24
34921;BME280;21128;50.016;20.002;2023-03-31T14:07:43;97418.86;;;16.07;46.64
34921;BME280;21128;50.016;20.002;2023-03-31T14:10:35;97429.48;;;16.00;46.97
34921;BME280;21128;50.016;20.002;2023-03-31T14:13:23;97426.02;;;15.99;46.24
34921;BME280;21128;50.016;20.002;2023-03-31T14:16:18;97418.08;;;15.99;46.84
34921;BME280;21128;50.016;20.002;2023-03-31T14:22:24;97413.12;;;16.10;48.21
34921;BME280;21128;50.016;20.002;2023-03-31T14:25:37;97407.34;;;16.26;46.21
34921;BME280;21128;50.016;20.002;2023-03-31T14:28:48;97401.59;;;16.29;46.41
34921;BME280;21128;50.016;20.002;2023-03-31T14:31:48;97415.78;;;16.10;43.91
34921;BME280;21128;50.016;20.002;2023-03-31T14:37:49;97407.20;;;15.63;43.84
34921;BME280;21128;50.016;20.002;2023-03-31T14:40:45;97417.39;;;15.46;44.71
34921;BME280;21128;50.016;20.002;2023-03-31T14:43:34;97412.97;;;15.20;45.55
34921;BME280;21128;50.016;20.002;2023-03-31T14:46:21;97413.81;;;15.14;46.17
34921;BME280;21128;50.016;20.002;2023-03-31T14:49:33;97416.25;;;15.09;46.47
34921;BME280;21128;50.016;20.002;2023-03-31T14:52:20;97419.32;;;15.06;47.12
34921;BME280;21128;50.016;20.002;2023-03-31T14:55:13;97402.84;;;14.97;47.04
34921;BME280;21128;50.016;20.002;2023-03-31T14:58:00;97407.92;;;14.85;47.48
34921;BME280;21128;50.016;20.002;2023-03-31T15:00:47;97398.98;;;14.80;49.22
34921;BME280;21128;50.016;20.002;2023-03-31T15:03:34;97404.88;;;14.75;48.28
34921;BME280;21128;50.016;20.002;2023-03-31T15:06:25;97395.51;;;14.59;48.23
34921;BME280;21128;50.016;20.002;2023-03-31T15:09:28;97387.59;;;14.46;48.63
34921;BME280;21128;50.016;20.002;2023-03-31T15:12:16;97381.02;;;14.35;48.73
34921;BME280;21128;50.016;20.002;2023-03-31T15:15:05;97379.20;;;14.29;48.85
34921;BME280;21128;50.016;20.002;2023-03-31T15:17:51;97372.26;;;14.28;48.93
34921;BME280;21128;50.016;20.002;2023-03-31T15:20:38;97372.67;;;14.25;49.40
34921;BME280;21128;50.016;20.002;2023-03-31T15:23:26;97358.05;;;14.23;49.46
34921;BME280;21128;50.016;20.002;2023-03-31T15:26:15;97351.75;;;14.24;49.95
34921;BME280;21128;50.016;20.002;2023-03-31T15:29:22;97350.52;;;14.26;49.79
34921;BME280;21128;50.016;20.002;2023-03-31T15:32:27;97343.59;;;14.19;50.03
34921;BME280;21128;50.016;20.002;2023-03-31T15:35:23;97338.94;;;14.14;50.21
34921;BME280;21128;50.016;20.002;2023-03-31T15:38:13;97341.37;;;14.16;50.82
34921;BME280;21128;50.016;20.002;2023-03-31T15:41:03;97335.48;;;14.14;51.07
34921;BME280;21128;50.016;20.002;2023-03-31T15:47:27;97330.80;;;14.16;51.42
34921;BME280;21128;50.016;20.002;2023-03-31T15:50:14;97331.01;;;14.14;51.00
34921;BME280;21128;50.016;20.002;2023-03-31T15:53:00;97323.29;;;14.13;51.38
34921;BME280;21128;50.016;20.002;2023-03-31T15:55:47;97321.46;;;14.13;51.51
34921;BME280;21128;50.016;20.002;2023-03-31T15:58:53;97315.54;;;14.11;51.75
34921;BME280;21128;50.016;20.002;2023-03-31T16:01:44;97313.92;;;14.10;51.71
34921;BME280;21128;50.016;20.002;2023-03-31T16:04:31;97309.86;;;14.07;51.45
34921;BME280;21128;50.016;20.002;2023-03-31T16:07:21;97307.22;;;14.07;52.20
34921;BME280;21128;50.016;20.002;2023-03-31T16:10:20;97306.20;;;14.08;52.30
34921;BME280;21128;50.016;20.002;2023-03-31T16:13:09;97289.34;;;14.09;52.75
34921;BME280;21128;50.016;20.002;2023-03-31T16:15:58;97281.20;;;14.11;52.80
34921;BME280;21128;50.016;20.002;2023-03-31T16:18:49;97275.11;;;14.11;52.70
34921;BME280;21128;50.016;20.002;2023-03-31T16:21:39;97274.72;;;14.07;53.07
34921;BME280;21128;50.016;20.002;2023-03-31T16:24:33;97277.73;;;14.04;53.12
34921;BME280;21128;50.016;20.002;2023-03-31T16:27:20;97273.69;;;14.01;53.80
34921;BME280;21128;50.016;20.002;2023-03-31T16:30:11;97264.34;;;13.99;53.68
34921;BME280;21128;50.016;20.002;2023-03-31T16:33:09;97257.83;;;13.95;53.59
34921;BME280;21128;50.016;20.002;2023-03-31T16:35:56;97250.92;;;13.94;53.77
34921;BME280;21128;50.016;20.002;2023-03-31T16:38:42;97248.70;;;13.91;54.25
34921;BME280;21128;50.016;20.002;2023-03-31T16:41:28;97242.00;;;13.88;54.36
34921;BME280;21128;50.016;20.002;2023-03-31T16:44:14;97238.73;;;13.86;54.22
34921;BME280;21128;50.016;20.002;2023-03-31T16:46:59;97236.70;;;13.82;54.34
34921;BME280;21128;50.016;20.002;2023-03-31T16:49:45;97232.02;;;13.77;54.73
34921;BME280;21128;50.016;20.002;2023-03-31T16:52:30;97238.94;;;13.71;54.99
34921;BME280;21128;50.016;20.002;2023-03-31T16:55:16;97247.85;;;13.64;54.89
34921;BME280;21128;50.016;20.002;2023-03-31T16:58:01;97240.52;;;13.59;55.09
34921;BME280;21128;50.016;20.002;2023-03-31T17:00:49;97234.84;;;13.56;55.25
34921;BME280;21128;50.016;20.002;2023-03-31T17:03:35;97234.61;;;13.50;55.74
34921;BME280;21128;50.016;20.002;2023-03-31T17:06:29;97236.03;;;13.46;55.68
34921;BME280;21128;50.016;20.002;2023-03-31T17:09:27;97243.52;;;13.43;56.02
34921;BME280;21128;50.016;20.002;2023-03-31T17:12:13;97236.02;;;13.40;56.08
34921;BME280;21128;50.016;20.002;2023-03-31T17:14:59;97235.58;;;13.36;56.15
34921;BME280;21128;50.016;20.002;2023-03-31T17:17:45;97229.70;;;13.34;56.17